Tropical Cyclones
[Index]
Main Index Home Page Stock Weather Photos Extreme Storms Discussion Storm News and Storm Chasing Reports Tropical Cyclones / Hurricanes / Typhoons Weather Data and Links Wild Fires / Bushfires Weather Observation Techniques Weather Picture Catalogue Tornado Pictures and Reports Stock Video Footage and DVDs for sale
Season 2016-2017 Tropical Cyclone FERNANDO Track Map
Season 2016-2017 Summaries (Operational Data): [AU] [SIO] [SPAC] [SH]
<<- Previous TC | 2016-2017 Season | Next TC ->>

click for intensity scale information  Lat/long Grid: Show Hide

 Date Labels: Show Hide

Operational Tropical Cyclone Data : JTWC Advisories

Name: FERNANDO
Number: 1711

02 Mar 2017 12:00 UTC to 15 Mar 2017 00:00 UTC

    date/time    lat    long     hPa   cat  kts
2017-03-02 12    7.5    87.0    1010         15          
2017-03-02 18    7.7    86.0    1010         15          
2017-03-03 00    7.7    85.1    1010         15          
2017-03-03 06    7.7    84.2    1010         15          
2017-03-03 12    7.8    83.3    1010         15          
2017-03-03 18    9.6    85.1    1004         15          
2017-03-04 00   10.1    84.3    1010         15          
2017-03-04 06   10.7    83.4    1010         15          
2017-03-04 12   11.2    82.7    1006         15          
2017-03-04 18   11.7    82.0    1006         15          
2017-03-05 00   12.4    81.5    1004         25          
2017-03-05 06   12.6    80.8    1004         25          
2017-03-05 12   12.9    79.9    1004         25          
2017-03-05 18   13.2    79.2    1004         25          
2017-03-06 00   13.8    77.9    1004         25          
2017-03-06 06   14.2    77.1    1004         25          
2017-03-06 12   14.6    76.5    1006         25          
2017-03-06 18   15.0    75.8    1004         30          
2017-03-07 00   15.6    74.8    1004         30          
2017-03-07 06   15.9    73.8    1002         30          
2017-03-07 12   16.1    72.8    1002         30          
2017-03-07 18   16.0    72.1    1003         30          
2017-03-08 00   15.0    71.5    1003         30          
2017-03-08 06   15.1    71.1    1002         30          
2017-03-08 12   15.1    70.6    1002         30          
2017-03-08 18   15.2    70.1    1003    1    35          
2017-03-09 00   15.1    69.2     998    1    40          
2017-03-09 06   14.6    68.6     999    1    40          
2017-03-09 12   14.2    68.8    1001    1    35          
2017-03-09 14   14.2    69.2     996    1    35          
2017-03-09 18   14.5    69.3    1000    1    35          
2017-03-10 00   15.1    69.1     998         30          
2017-03-10 06   15.5    69.1    1000    1    35          
2017-03-10 12   16.0    69.0     999         30          
2017-03-10 18   16.5    68.9     999         30          
2017-03-11 00   18.3    68.2    1000         30          
2017-03-11 06   19.4    66.8    1000         30          
2017-03-11 12   20.0    65.8    1000         30          
2017-03-11 18   20.4    64.6    1000         30          
2017-03-12 00   20.5    63.2    1000         30          
2017-03-12 06   20.8    62.1    1000         30          
2017-03-12 12   21.5    60.3    1000         30          
2017-03-12 18   22.1    59.3    1000         30          
2017-03-13 00   22.8    57.6    1000         30          
2017-03-13 06   23.6    56.2    1000         30          
2017-03-13 12   24.4    55.0    1000         30          
2017-03-13 18   25.1    54.2    1000         30          
2017-03-14 00   26.1    53.7    1000         30          
2017-03-14 06   27.3    53.2    1000         30          
2017-03-14 12   28.5    52.8     996    1    35          
2017-03-14 18   29.8    52.4     995    1    45          
2017-03-15 00   30.8    52.1     995    1    45          
2017-03-15 06   32.8    51.6     989    1    45          
2017-03-15 12   34.1    51.4                             
2017-03-15 18   36.2    51.2                             
2017-03-13 00   38.5    52.5                             
2017-03-13 06   40.6    53.2                             
2017-03-13 12   44.4    55.1                             
2017-03-13 18   48.8    57.0                             
2017-03-14 00   52.6    62.4                             
2017-03-14 06   54.2    69.1                             
2017-03-14 12   56.3    77.2                             
2017-03-14 18   57.8    85.2                             
2017-03-15 00   58.5    93.8                             
Winds are 10-min average.

Tropical cyclone tracks developed by Michael Bath using operational warnings and advisories and Google Maps.


[Australian Severe Weather index] [Copyright Notice] [Email Contacts] [Search This Site] [Privacy Policy]
Document: tropical_cyclone_fernando.htm Updated: 4 July 2017